Tiempo atmosférico en la estación meteorológica de Pedrosillo de Los Aires, Salamanca (865 m.)



Fecha
DESCASC
Temp. máxima en grados centígrados (hora)
DESCASC
Temp. mínima en grados centígrados (hora)
DESCASC
Temp. media en grados centígrados
DESCASC
Racha de viento máxima en m/sg (hora)
DESCASC
Velocidad máxima media en intervalos de 10 minutos(hora)
DESCASC
Precipitaciones diarias en mm
DESCASC
Precipitaciones de 00:00 a 06:00 en mm
DESCASC
Precipitaciones de 06:00 a 12:00 en mm
DESCASC
Precipitaciones de 12:00 a 18:00 en mm
DESCASC
Precipitaciones de 18:00 a 24:00 en mm
DESCASC
18-04-2019 13.1 (17:00) 6 (07:30) 9.6 12.22 (02:00) 7.22 (01:20) 0.2 0 0 0.2 0
17-04-2019 18.2 (15:10) 7.5 (01:30) 12.9 16.39 (16:00) 11.67 (16:10) 1.2 0 0 0 1.2
16-04-2019 17.7 (17:20) 0 (00:00) 8.9 7.5 (14:20) 4.17 (18:20) 0 0 0 0 0
15-04-2019 17.4 (11:20) 7.3 (00:00) 12.3 15.83 (12:10) 10.56 (12:50) 0.2 0 0 0.2 0
14-04-2019 20 (18:00) 7.8 (00:00) 13.9 5.56 (15:10) 2.5 (17:40) 0 0 0 0 0
13-04-2019 19.6 (18:40) 0.7 (00:00) 10.2 9.44 (20:10) 5.56 (19:40) 0 0 0 0 0
12-04-2019 15.5 (19:00) -2.6 (-00:0) 6.5 7.5 (14:00) 4.72 (14:20) 0 0 0 0 0
11-04-2019 12.4 (18:50) -1 (-00:0) 5.7 8.33 (15:40) 5 (14:30) 0 0 0 0 0
10-04-2019 12 (16:50) 3.7 (00:00) 7.9 11.11 (15:40) 7.5 (17:40) 9 0.4 0.2 3.6 4.8
09-04-2019 11 (16:00) 3.9 (00:00) 7.5 14.17 (17:00) 7.78 (17:00) 3 0.2 2.2 0.2 0.4
08-04-2019 12.9 (15:10) 4.9 (00:00) 8.9 15.56 (03:10) 8.33 (02:00) 5.4 0.4 0.2 0 4.8
07-04-2019 9.4 (15:40) 1.7 (00:00) 5.5 12.22 (16:40) 7.78 (16:40) 0.6 0.2 0 0.2 0.2
06-04-2019 7.7 (16:10) 1.5 (00:00) 4.6 17.22 (14:10) 10 (13:10) 3.2 0 0.6 2.2 0.4
05-04-2019 6.6 (18:00) 0.4 (00:00) 3.5 13.33 (05:20) 8.89 (03:00) 14.8 0.6 5.4 3.8 5
04-04-2019 11.8 (16:30) -6.4 (-00:0) 2.7 12.78 (16:30) 8.33 (23:50) 0.2 0 0 0 0.2
03-04-2019 11.6 (16:30) 1.6 (06:50) 6.6 11.11 (17:20) 6.11 (18:40) 0 0 0 0 0
02-04-2019 17.3 (17:40) 5.4 (00:00) 11.3 10.83 (16:10) 6.11 (17:10) 0.2 0.2 0 0 0
01-04-2019 16.7 (15:00) 0.4 (00:00) 8.6 9.17 (17:10) 5.83 (17:20) 0 0 0 0 0
31-03-2019 18.7 (15:00) -1.2 (-00:0) 8.8 8.61 (17:30) 6.11 (17:30) 0 0 0 0 0
30-03-2019 18.2 (15:40) -1.6 (-00:0) 8.3 8.06 (12:20) 3.89 (15:50) 0 0 0 0 0
29-03-2019 18.5 (15:10) -3.7 (-00:0) 7.4 7.22 (21:10) 4.17 (22:00) 0 0 0 0 0
28-03-2019 18.2 (17:20) -3.9 (-00:0) 7.2 7.5 (14:00) 4.17 (12:40) 0 0 0 0 0
27-03-2019 17.4 (16:50) -1.7 (-00:0) 7.8 8.89 (15:00) 5.56 (16:20) 0 0 0 0 0
26-03-2019 18.8 (16:50) -2.1 (-00:0) 8.3 13.89 (16:10) 10 (10:00) 0 0 0 0 0
25-03-2019 17.4 (15:30) -1.3 (-00:0) 8 13.06 (16:10) 8.33 (17:50) 0 0 0 0 0
24-03-2019 19.3 (17:20) 1 (00:00) 10.1 17.78 (14:10) 8.33 (12:50) 0 0 0 0 0
23-03-2019 19.2 (16:20) -3.1 (-00:0) 8.1 9.72 (14:50) 5.83 (15:10) 0 0 0 0 0
22-03-2019 16.3 (16:00) -4.7 (-00:0) 5.8 8.61 (15:30) 5.28 (17:40) 0 0 0 0 0
21-03-2019 14.7 (16:10) -4.8 (-00:0) 4.9 6.39 (17:40) 4.17 (17:40) 0 0 0 0 0

Gráficas

Temp. máximas Temp. mínimas Temp. medias Precipitaciones Rachas de viento máximas Velocidades máximas media en intervalos de 10 minutos

Datos horarios

Fecha y hora oficial Temperatura (ºC) Velocidad del viento (km/h) Dirección del viento Racha (km/h) Dirección de racha Precipitación (mm) Presión (hPa) Tendencia (hPa) Humedad (%)
2019-04-19 23:00:00 9.9 12 Este 21 Este 0 -- -- 89
2019-04-19 22:00:00 10.1 17 Nordeste 32 Este 0 -- -- 88
2019-04-19 21:00:00 10.8 24 Nordeste 40 Nordeste 0 -- -- 77
2019-04-19 20:00:00 12 31 Nordeste 44 Nordeste 0 -- -- 72
2019-04-19 19:00:00 14 22 Nordeste 35 Nordeste 0 -- -- 58
2019-04-19 18:00:00 13.5 24 Nordeste 35 Nordeste 0 -- -- 56
2019-04-19 17:00:00 12.9 22 Nordeste 37 Nordeste 0 -- -- 61
2019-04-19 16:00:00 13.5 24 Este 41 Nordeste 0 -- -- 61
2019-04-19 15:00:00 12.2 27 Este 39 Nordeste 0 -- -- 66
2019-04-19 14:00:00 11.8 26 Nordeste 41 Este 0 -- -- 68
2019-04-19 13:00:00 10.7 19 Nordeste 38 Nordeste 0.4 -- -- 80
2019-04-19 12:00:00 12.4 16 Este 26 Nordeste 0 -- -- 67
2019-04-19 11:00:00 11.1 10 Nordeste 19 Nordeste 0 -- -- 75
2019-04-19 10:00:00 8.9 12 Nordeste 18 Nordeste 0 -- -- 89
2019-04-19 09:00:00 6.4 3 Sudoeste 10 Nordeste 0 -- -- 98
2019-04-19 08:00:00 5.3 5 Nordeste 6 Nordeste 0 -- -- 95
2019-04-19 07:00:00 6.6 3 Sur 8 Sudoeste 0 -- -- 94
2019-04-19 06:00:00 7.4 5 Sur 10 Sur 0 -- -- 94
2019-04-19 05:00:00 7.4 4 Sudoeste 6 Sudoeste 0 -- -- 93
2019-04-19 04:00:00 7.4 0 Calma 7 Oeste 0 -- -- 93
2019-04-19 03:00:00 7.3 5 Oeste 11 Oeste 0 -- -- 94
2019-04-19 02:00:00 7.3 6 Oeste 10 Oeste 0 -- -- 93
2019-04-19 01:00:00 7.5 6 Oeste 9 Oeste 0 -- -- 92
2019-04-19 00:00:00 7.6 4 Noroeste 8 Noroeste 0 -- -- 89
2019-04-18 23:00:00 7.5 4 Norte 11 Noroeste 0 -- -- 88
2019-04-18 22:00:00 7.6 5 Noroeste 11 Oeste 0 -- -- 88
2019-04-18 21:00:00 8.4 9 Noroeste 15 Oeste 0 -- -- 86
2019-04-18 20:00:00 9.8 6 Norte 35 Norte 0 -- -- 82
2019-04-18 19:00:00 11.5 19 Nordeste 28 Nordeste 0 -- -- 69
2019-04-18 18:00:00 12.3 12 Sudeste 22 Este 0 -- -- 67
2019-04-18 17:00:00 13.1 12 Este 23 Nordeste 0 -- -- 61
2019-04-18 16:00:00 12.5 15 Nordeste 26 Este 0 -- -- 67
2019-04-18 15:00:00 10.6 17 Este 30 Este 0 -- -- 75
2019-04-18 14:00:00 12.4 10 Norte 16 Norte 0 -- -- 61
2019-04-18 13:00:00 11.8 6 Sur 12 Oeste 0.2 -- -- 67
2019-04-18 12:00:00 11 4 Noroeste 14 Oeste 0 -- -- 66
2019-04-18 11:00:00 9.9 6 Noroeste 12 Oeste 0 -- -- 78
2019-04-18 10:00:00 8.9 3 Sudoeste 6 Sudeste 0 -- -- 83
2019-04-18 09:00:00 7.1 3 Este 8 Sudeste 0 -- -- 94
2019-04-18 08:00:00 6.4 5 Sur 15 Sur 0 -- -- 96
2019-04-18 07:00:00 6.3 7 Oeste 15 Sudoeste 0 -- -- 94
2019-04-18 06:00:00 6.7 10 Sudoeste 20 Sudoeste 0 -- -- 94
2019-04-18 05:00:00 7.5 13 Sudoeste 22 Sudoeste 0 -- -- 93
2019-04-18 04:00:00 7.4 6 Sudoeste 44 Sudoeste 0 -- -- 93
2019-04-18 03:00:00 7.6 23 Sudoeste 35 Sudoeste 0 -- -- 92
2019-04-18 02:00:00 7.7 26 Sudoeste 44 Sudoeste 0 -- -- 91
2019-04-18 01:00:00 8.1 21 Sudoeste 35 Sudoeste 0 -- -- 93
2019-04-18 00:00:00 8 16 Sudoeste 31 Sur 0.2 -- -- 93
2019-04-17 23:00:00 8.2 22 Sudoeste 39 Sudoeste 0.2 -- -- 92
2019-04-17 22:00:00 8.4 21 Sudoeste 39 Sudoeste 0.6 -- -- 92
2019-04-17 21:00:00 9 25 Sudoeste 55 Sudoeste 0.2 -- -- 90
2019-04-17 20:00:00 12.1 27 Sudoeste 53 Sudoeste 0 -- -- 80
2019-04-17 19:00:00 16.2 30 Sur 50 Sur 0 -- -- 48
2019-04-17 18:00:00 17.2 23 Sur 52 Sur 0 -- -- 46
2019-04-17 17:00:00 17.5 34 Sudoeste 59 Sudoeste 0 -- -- 44
2019-04-17 16:00:00 17.8 39 Sudoeste 59 Sur 0 -- -- 41
2019-04-17 15:00:00 17.9 21 Sur 40 Sur 0 -- -- 41
2019-04-17 14:00:00 17.7 3 Oeste 20 Oeste 0 -- -- 41
2019-04-17 13:00:00 17.1 13 Oeste 37 Sudoeste 0 -- -- 44
2019-04-17 12:00:00 16.3 20 Oeste 34 Sudoeste 0 -- -- 50
2019-04-17 11:00:00 15.6 13 Sudoeste 24 Sudoeste 0 -- -- 56
2019-04-17 10:00:00 13.2 7 Sudoeste 15 Sudoeste 0 -- -- 61
2019-04-17 09:00:00 10.3 3 Noroeste 18 Sur 0 -- -- 69
2019-04-17 08:00:00 12.3 16 Sur 28 Sur 0 -- -- 61
2019-04-17 07:00:00 10.2 13 Sur 21 Sur 0 -- -- 66
2019-04-17 06:00:00 10.2 10 Sudoeste 24 Sudoeste 0 -- -- 63
2019-04-17 05:00:00 12.2 19 Sur 33 Sur 0 -- -- 53
2019-04-17 04:00:00 8.3 6 Este 9 Este 0 -- -- 78
2019-04-17 03:00:00 7.6 4 Oeste 13 Oeste 0 -- -- 85
2019-04-17 02:00:00 7.5 4 Oeste 8 Oeste 0 -- -- 85
2019-04-17 01:00:00 8 3 Norte 9 Noroeste 0 -- -- 82
2019-04-17 00:00:00 8.5 5 Noroeste 8 Oeste 0 -- -- 78
2019-04-16 23:00:00 9.4 4 Noroeste 6 Norte 0 -- -- 75
2019-04-16 22:00:00 11.3 3 Noroeste 7 Oeste 0 -- -- 67
2019-04-16 21:00:00 13.9 2 Sur 13 Oeste 0 -- -- 56
2019-04-16 20:00:00 16.4 7 Sudoeste 20 Oeste 0 -- -- 49
2019-04-16 19:00:00 16.9 11 Oeste 23 Oeste 0 -- -- 44
2019-04-16 18:00:00 17.4 13 Oeste 23 Sudoeste 0 -- -- 46
2019-04-16 17:00:00 17.2 9 Oeste 21 Sudoeste 0 -- -- 53
2019-04-16 16:00:00 16.6 10 Sudoeste 23 Sudoeste 0 -- -- 58
2019-04-16 15:00:00 15.7 12 Sudoeste 27 Sudoeste 0 -- -- 57
2019-04-16 14:00:00 15.3 13 Sudoeste 21 Sudoeste 0 -- -- 55
2019-04-16 13:00:00 13.9 5 Oeste 12 Nordeste 0 -- -- 57
2019-04-16 12:00:00 11.6 9 Nordeste 18 Nordeste 0 -- -- 79
2019-04-16 11:00:00 7.5 5 Nordeste 8 Nordeste 0 -- -- 100
2019-04-16 10:00:00 3.9 0 Calma 5 Oeste 0 -- -- 99
2019-04-16 09:00:00 1.2 4 Oeste 6 Oeste 0 -- -- 99
2019-04-16 08:00:00 0 4 Norte 9 Oeste 0 -- -- 98
2019-04-16 07:00:00 0.4 0 Calma 6 Oeste 0 -- -- 98
2019-04-16 06:00:00 0.8 3 Noroeste 9 Oeste 0 -- -- 97
2019-04-16 05:00:00 1.9 5 Noroeste 8 Noroeste 0 -- -- 96
2019-04-16 04:00:00 2.6 3 Sudeste 10 Oeste 0 -- -- 96
2019-04-16 03:00:00 4 8 Oeste 10 Oeste 0 -- -- 95
2019-04-16 02:00:00 5.2 4 Oeste 11 Oeste 0 -- -- 93
2019-04-16 01:00:00 6.9 5 Sudoeste 9 Oeste 0 -- -- 89
2019-04-16 00:00:00 7.6 4 Sudoeste 12 Sudoeste 0 -- -- 88
2019-04-15 23:00:00 7.5 7 Sudoeste 10 Sudoeste 0 -- -- 89
2019-04-15 22:00:00 8.4 6 Sudoeste 18 Sudoeste 0 -- -- 82
2019-04-15 21:00:00 10.5 13 Sudoeste 24 Oeste 0 -- -- 78
2019-04-15 20:00:00 10.8 8 Sudoeste 19 Oeste 0 -- -- 80
2019-04-15 19:00:00 11.1 14 Sudoeste 25 Sudoeste 0 -- -- 80
2019-04-15 18:00:00 9.3 17 Sudoeste 45 Oeste 0.2 -- -- 87
2019-04-15 17:00:00 11.5 25 Oeste 43 Oeste 0 -- -- 69
2019-04-15 16:00:00 17.1 30 Sudoeste 49 Sudoeste 0 -- -- 52
2019-04-15 15:00:00 17 34 Sudoeste 55 Sudoeste 0 -- -- 54
2019-04-15 14:00:00 16.8 29 Sudoeste 50 Sudoeste 0 -- -- 66
2019-04-15 13:00:00 16.1 31 Sudoeste 57 Sudoeste 0 -- -- 72
2019-04-15 12:00:00 16.9 30 Sudoeste 47 Sudoeste 0 -- -- 71
2019-04-15 11:00:00 16.5 23 Sudoeste 38 Sudoeste 0 -- -- 71
2019-04-15 10:00:00 11.3 2 Noroeste 8 Oeste 0 -- -- 93
2019-04-15 09:00:00 9.9 4 Oeste 6 Oeste 0 -- -- 94
2019-04-15 08:00:00 9.3 4 Norte 11 Noroeste 0 -- -- 94
2019-04-15 07:00:00 9.9 4 Este 7 Norte 0 -- -- 95
2019-04-15 06:00:00 9.2 3 Norte 7 Oeste 0 -- -- 92
2019-04-15 05:00:00 9.5 4 Sudoeste 9 Oeste 0 -- -- 93
2019-04-15 04:00:00 10.8 4 Este 8 Este 0 -- -- 92
2019-04-15 03:00:00 10.1 3 Sudoeste 9 Oeste 0 -- -- 91
2019-04-15 02:00:00 11.1 5 Oeste 8 Sudoeste 0 -- -- 87
2019-04-15 01:00:00 12.1 6 Sudoeste 8 Oeste 0 -- -- 85
2019-04-15 00:00:00 14 4 Sur 10 Sudoeste 0 -- -- 76
2019-04-14 23:00:00 14.3 8 Sudoeste 10 Sudoeste 0 -- -- 77
2019-04-14 22:00:00 15.6 5 Sudoeste 10 Sudoeste 0 -- -- 72
2019-04-14 21:00:00 17.1 5 Noroeste 12 Noroeste 0 -- -- 64
2019-04-14 20:00:00 18 3 Noroeste 11 Noroeste 0 -- -- 63
2019-04-14 19:00:00 18.5 7 Noroeste 15 Oeste 0 -- -- 60
2019-04-14 18:00:00 20 5 Noroeste 15 Oeste 0 -- -- 55
2019-04-14 17:00:00 18.7 3 Oeste 11 Noroeste 0 -- -- 59
2019-04-14 16:00:00 18.6 6 Oeste 20 Sudoeste 0 -- -- 58
2019-04-14 15:00:00 18.1 6 Sudoeste 13 Sudoeste 0 -- -- 57
2019-04-14 14:00:00 17.1 5 Sur 12 Sudeste 0 -- -- 61
2019-04-14 13:00:00 16.5 8 Oeste 13 Oeste 0 -- -- 58
2019-04-14 12:00:00 14.6 5 Oeste 14 Noroeste 0 -- -- 74
2019-04-14 11:00:00 13.1 5 Oeste 10 Oeste 0 -- -- 77
2019-04-14 10:00:00 10.8 3 Oeste 8 Oeste 0 -- -- 84
2019-04-14 09:00:00 8.6 6 Oeste 9 Oeste 0 -- -- 90
2019-04-14 08:00:00 8.2 6 Sudoeste 9 Oeste 0 -- -- 94
2019-04-14 07:00:00 9 5 Oeste 8 Sudoeste 0 -- -- 94
2019-04-14 06:00:00 9.5 5 Sudoeste 10 Oeste 0 -- -- 94
2019-04-14 05:00:00 8.7 6 Sudoeste 8 Sudoeste 0 -- -- 92
2019-04-14 04:00:00 9.1 5 Sudoeste 12 Oeste 0 -- -- 89
2019-04-14 03:00:00 9.5 4 Sudoeste 12 Sudoeste 0 -- -- 87
2019-04-14 02:00:00 10.3 6 Sudoeste 12 Sudoeste 0 -- -- 82
2019-04-14 01:00:00 11.7 5 Sudoeste 9 Oeste 0 -- -- 74
2019-04-14 00:00:00 12.4 3 Sudoeste 11 Oeste 0 -- -- 69
2019-04-13 23:00:00 13.4 8 Oeste 14 Oeste 0 -- -- 63
2019-04-13 22:00:00 14.3 7 Oeste 30 Sudoeste 0 -- -- 59
2019-04-13 21:00:00 15.1 17 Sudoeste 34 Sudoeste 0 -- -- 53
2019-04-13 20:00:00 17.2 19 Sudoeste 32 Sudoeste 0 -- -- 47
2019-04-13 19:00:00 18.8 13 Oeste 24 Oeste 0 -- -- 39
2019-04-13 18:00:00 19.4 13 Sudoeste 24 Sudoeste 0 -- -- 33
2019-04-13 17:00:00 19.1 13 Oeste 23 Oeste 0 -- -- 31
2019-04-13 16:00:00 18.3 5 Sudoeste 13 Oeste 0 -- -- 30
2019-04-13 15:00:00 17.3 9 Sudoeste 15 Oeste 0 -- -- 32
2019-04-13 14:00:00 16.4 7 Este 14 Norte 0 -- -- 39
2019-04-13 13:00:00 15.3 7 Nordeste 17 Nordeste 0 -- -- 45
2019-04-13 12:00:00 14.4 4 Sur 11 Sudeste 0 -- -- 46
2019-04-13 11:00:00 12.5 4 Este 8 Sudeste 0 -- -- 56
2019-04-13 10:00:00 7.8 5 Sudoeste 9 Sudoeste 0 -- -- 73
2019-04-13 09:00:00 4 3 Oeste 10 Oeste 0 -- -- 87
2019-04-13 08:00:00 2.1 5 Sudoeste 7 Oeste 0 -- -- 93
2019-04-13 07:00:00 1.6 5 Oeste 7 Oeste 0 -- -- 93
2019-04-13 06:00:00 1.3 3 Noroeste 8 Oeste 0 -- -- 92
2019-04-13 05:00:00 1.2 4 Oeste 9 Oeste 0 -- -- 93
2019-04-13 04:00:00 0.8 3 Noroeste 9 Oeste 0 -- -- 92
2019-04-13 03:00:00 1.7 7 Noroeste 10 Noroeste 0 -- -- 90
2019-04-13 02:00:00 2.6 5 Noroeste 13 Oeste 0 -- -- 87
2019-04-13 01:00:00 3.6 10 Oeste 12 Oeste 0 -- -- 85
2019-04-13 00:00:00 4.2 8 Oeste 10 Oeste 0 -- -- 84
2019-04-12 23:00:00 6.7 8 Oeste 16 Oeste 0 -- -- 73
2019-04-12 22:00:00 8.9 9 Noroeste 14 Oeste 0 -- -- 64
2019-04-12 21:00:00 12.4 8 Nordeste 11 Norte 0 -- -- 46
2019-04-12 20:00:00 15.1 3 Este 14 Nordeste 0 -- -- 40
2019-04-12 19:00:00 15.5 5 Norte 18 Nordeste 0 -- -- 41
2019-04-12 18:00:00 15 10 Este 20 Este 0 -- -- 44
2019-04-12 17:00:00 14.8 10 Nordeste 26 Nordeste 0 -- -- 43
2019-04-12 16:00:00 14.3 9 Norte 22 Norte 0 -- -- 48
2019-04-12 15:00:00 13.9 8 Norte 25 Nordeste 0 -- -- 48
2019-04-12 14:00:00 13.5 10 Norte 27 Nordeste 0 -- -- 51
2019-04-12 13:00:00 12.2 8 Nordeste 15 Este 0 -- -- 59
2019-04-12 12:00:00 10.2 9 Nordeste 14 Nordeste 0 -- -- 59
2019-04-12 11:00:00 7.8 6 Nordeste 11 Nordeste 0 -- -- 75
2019-04-12 10:00:00 4 2 Nordeste 6 Sudoeste 0 -- -- 89
2019-04-12 09:00:00 -1.1 4 Oeste 6 Sudoeste 0 -- -- 95
2019-04-12 08:00:00 -2.6 6 Oeste 7 Oeste 0 -- -- 95
2019-04-12 07:00:00 -1.8 2 Sudoeste 6 Noroeste 0 -- -- 95
2019-04-12 06:00:00 -1.3 5 Oeste 10 Sudoeste 0 -- -- 96
2019-04-12 05:00:00 -0.9 7 Oeste 9 Noroeste 0 -- -- 92
2019-04-12 04:00:00 -0.1 6 Oeste 19 Nordeste 0 -- -- 93
2019-04-12 03:00:00 -0.4 7 Oeste 18 Nordeste 0 -- -- 92
2019-04-12 02:00:00 0.8 5 Oeste 9 Oeste 0 -- -- 91
2019-04-12 01:00:00 1.2 7 Oeste 11 Oeste 0 -- -- 90
2019-04-12 00:00:00 2.5 7 Oeste 10 Oeste 0 -- -- 86
2019-04-11 23:00:00 4.3 8 Oeste 11 Oeste 0 -- -- 80
2019-04-11 22:00:00 7.5 6 Este 8 Norte 0 -- -- 63
2019-04-11 21:00:00 9.1 5 Norte 16 Nordeste 0 -- -- 57
2019-04-11 20:00:00 11.7 10 Nordeste 22 Norte 0 -- -- 48
2019-04-11 19:00:00 11.3 17 Nordeste 22 Norte 0 -- -- 51
2019-04-11 18:00:00 11 15 Nordeste 21 Norte 0 -- -- 54
2019-04-11 17:00:00 11.6 14 Nordeste 27 Nordeste 0 -- -- 51
2019-04-11 16:00:00 10.8 15 Nordeste 30 Este 0 -- -- 53
2019-04-11 15:00:00 10.7 17 Nordeste 28 Nordeste 0 -- -- 56
2019-04-11 14:00:00 10.5 13 Nordeste 23 Nordeste 0 -- -- 60
2019-04-11 13:00:00 10.1 13 Nordeste 27 Nordeste 0 -- -- 65
2019-04-11 12:00:00 8.4 16 Nordeste 22 Nordeste 0 -- -- 77
2019-04-11 11:00:00 5.1 10 Nordeste 17 Nordeste 0 -- -- 99
2019-04-11 10:00:00 1.2 4 Este 6 Nordeste 0 -- -- 100
2019-04-11 09:00:00 -0.5 0 Calma 6 Nordeste 0 -- -- 99
2019-04-11 08:00:00 -0.9 2 Noroeste 4 Oeste 0 -- -- 98
2019-04-11 07:00:00 -0.8 2 Nordeste 5 Sudoeste 0 -- -- 98
2019-04-11 06:00:00 -0.6 4 Nordeste 6 Este 0 -- -- 98
2019-04-11 05:00:00 -0.1 2 Norte 8 Oeste 0 -- -- 98
2019-04-11 04:00:00 0.5 6 Oeste 10 Oeste 0 -- -- 97
2019-04-11 03:00:00 0.9 4 Oeste 9 Oeste 0 -- -- 96
2019-04-11 02:00:00 2.1 4 Oeste 8 Oeste 0 -- -- 95
2019-04-11 01:00:00 2.7 4 Sudoeste 8 Sudoeste 0 -- -- 95
2019-04-11 00:00:00 3.7 3 Sudeste 17 Sudoeste 0.2 -- -- 95
2019-04-10 23:00:00 4.7 10 Oeste 18 Nordeste 1 -- -- 95
2019-04-10 22:00:00 4.2 9 Este 14 Este 0 -- -- 92
2019-04-10 21:00:00 5 5 Sudoeste 21 Sudoeste 0 -- -- 89
2019-04-10 20:00:00 4.8 10 Sudoeste 24 Oeste 0.6 -- -- 92
2019-04-10 19:00:00 4.5 15 Oeste 35 Norte 3 -- -- 91
2019-04-10 18:00:00 3.8 15 Norte 38 Nordeste 3.6 -- -- 88
2019-04-10 17:00:00 11.2 25 Noroeste 38 Oeste 0 -- -- 61
2019-04-10 16:00:00 11.8 22 Oeste 40 Oeste 0 -- -- 57
2019-04-10 15:00:00 10.2 19 Oeste 31 Oeste 0 -- -- 65
2019-04-10 14:00:00 9.2 18 Oeste 35 Noroeste 0 -- -- 66
2019-04-10 13:00:00 8 21 Noroeste 33 Oeste 0 -- -- 70
2019-04-10 12:00:00 7 21 Oeste 36 Oeste 0 -- -- 74
2019-04-10 11:00:00 6.3 12 Oeste 25 Oeste 0 -- -- 84
2019-04-10 10:00:00 5.7 11 Oeste 22 Sudoeste 0 -- -- 86
2019-04-10 09:00:00 4.8 13 Sudoeste 22 Sudoeste 0 -- -- 92
2019-04-10 08:00:00 4.5 10 Sudoeste 21 Sudoeste 0.2 -- -- 92
2019-04-10 07:00:00 4.4 13 Sudoeste 22 Oeste 0 -- -- 91
2019-04-10 06:00:00 4.6 10 Sudoeste 27 Oeste 0 -- -- 92
2019-04-10 05:00:00 4.9 13 Sudoeste 23 Oeste 0 -- -- 90
2019-04-10 04:00:00 5 13 Sudoeste 24 Oeste 0 -- -- 90
2019-04-10 03:00:00 5.1 13 Oeste 27 Sudoeste 0 -- -- 89
2019-04-10 02:00:00 4.7 11 Sudoeste 17 Sudoeste 0 -- -- 93
2019-04-10 01:00:00 5.1 9 Sudoeste 22 Sudoeste 0.4 -- -- 92
2019-04-10 00:00:00 5.8 14 Oeste 27 Sudoeste 0 -- -- 84
2019-04-09 23:00:00 6.3 17 Sudoeste 24 Sudoeste 0 -- -- 86
2019-04-09 22:00:00 6.9 13 Oeste 35 Sudoeste 0.2 -- -- 83
2019-04-09 21:00:00 7.6 15 Oeste 40 Oeste 0 -- -- 78
2019-04-09 20:00:00 8.4 16 Oeste 34 Oeste 0 -- -- 74
2019-04-09 19:00:00 8.4 16 Oeste 45 Oeste 0.2 -- -- 77
2019-04-09 18:00:00 10.3 24 Oeste 42 Oeste 0 -- -- 54
2019-04-09 17:00:00 9.2 28 Oeste 51 Oeste 0 -- -- 69
2019-04-09 16:00:00 11 24 Oeste 50 Sudoeste 0 -- -- 61
2019-04-09 15:00:00 10.2 26 Oeste 44 Oeste 0 -- -- 60
2019-04-09 14:00:00 8.7 24 Oeste 39 Oeste 0 -- -- 68
2019-04-09 13:00:00 6.5 21 Oeste 33 Sudoeste 0.2 -- -- 90
2019-04-09 12:00:00 3.9 20 Oeste 41 Noroeste 1.8 -- -- 93
2019-04-09 11:00:00 5.4 24 Sudoeste 41 Sudoeste 0.4 -- -- 92
2019-04-09 10:00:00 5.7 22 Sudoeste 34 Sudoeste 0 -- -- 91
2019-04-09 09:00:00 4.8 24 Sudoeste 39 Sudoeste 0 -- -- 93
2019-04-09 08:00:00 4.8 18 Sudoeste 29 Sudoeste 0 -- -- 94
2019-04-09 07:00:00 4.9 18 Sudoeste 31 Sudoeste 0 -- -- 94
2019-04-09 06:00:00 4.8 16 Sudoeste 27 Sudoeste 0 -- -- 93
2019-04-09 05:00:00 4.6 17 Sudoeste 27 Sudoeste 0 -- -- 93
2019-04-09 04:00:00 4.4 18 Sudoeste 33 Sudoeste 0 -- -- 94
2019-04-09 03:00:00 4.6 18 Sudoeste 28 Sudoeste 0 -- -- 96
2019-04-09 02:00:00 4.6 14 Sudoeste 20 Sudoeste 0 -- -- 96
2019-04-09 01:00:00 3.9 9 Sudoeste 20 Sudoeste 0.2 -- -- 94
2019-04-09 00:00:00 5 17 Sudoeste 35 Sudoeste 0.8 -- -- 92
2019-04-08 23:00:00 5.2 21 Sudoeste 36 Sudoeste 1.2 -- -- 88
2019-04-08 22:00:00 5.9 9 Sudoeste 14 Sudoeste 0 -- -- 94
2019-04-08 21:00:00 6.2 5 Sudoeste 20 Sudoeste 0 -- -- 88
2019-04-08 20:00:00 7 13 Sudoeste 21 Sudoeste 0.4 -- -- 87
2019-04-08 19:00:00 5.9 14 Sudoeste 51 Sudoeste 2.4 -- -- 88
2019-04-08 18:00:00 10.3 19 Sudoeste 33 Sudoeste 0 -- -- 64
2019-04-08 17:00:00 10.1 27 Sudoeste 43 Sudoeste 0 -- -- 66
2019-04-08 16:00:00 11.8 17 Oeste 30 Sudoeste 0 -- -- 50
2019-04-08 15:00:00 12.5 16 Oeste 34 Oeste 0 -- -- 53
2019-04-08 14:00:00 11 19 Oeste 33 Oeste 0 -- -- 59
2019-04-08 13:00:00 10.1 16 Oeste 31 Oeste 0 -- -- 66
2019-04-08 12:00:00 10 15 Oeste 28 Oeste 0 -- -- 69
2019-04-08 11:00:00 8.3 18 Oeste 30 Oeste 0 -- -- 75
2019-04-08 10:00:00 7.5 14 Oeste 24 Oeste 0 -- -- 83
2019-04-08 09:00:00 6.4 12 Oeste 26 Oeste 0 -- -- 87
2019-04-08 08:00:00 6.4 10 Oeste 31 Oeste 0 -- -- 90
2019-04-08 07:00:00 7.5 18 Oeste 28 Oeste 0.2 -- -- 91
2019-04-08 06:00:00 8.1 15 Oeste 33 Oeste 0 -- -- 95
2019-04-08 05:00:00 7.9 17 Sudoeste 40 Sudoeste 0.2 -- -- 94
2019-04-08 04:00:00 8.1 24 Sudoeste 56 Sudoeste 0 -- -- 93
2019-04-08 03:00:00 8 26 Sudoeste 48 Sudoeste 0.2 -- -- 93
2019-04-08 02:00:00 8.1 30 Sudoeste 47 Sudoeste 0 -- -- 91
2019-04-08 01:00:00 7.8 23 Sudoeste 40 Sudoeste 0 -- -- 93
2019-04-08 00:00:00 7.6 24 Sudoeste 35 Sudoeste 0 -- -- 95
2019-04-07 23:00:00 7.6 17 Sudoeste 32 Sudoeste 0 -- -- 94
2019-04-07 22:00:00 7.3 18 Sudoeste 30 Sudoeste 0 -- -- 95
2019-04-07 21:00:00 7.2 21 Sudoeste 36 Sudoeste 0 -- -- 94
2019-04-07 20:00:00 7.3 24 Sudoeste 36 Sudoeste 0 -- -- 91
2019-04-07 19:00:00 7.2 25 Sudoeste 39 Sudoeste 0.2 -- -- 89
2019-04-07 18:00:00 7 16 Sudoeste 35 Sudoeste 0.2 -- -- 89
2019-04-07 17:00:00 7.3 14 Sur 44 Sudoeste 0 -- -- 80
2019-04-07 16:00:00 9.1 24 Sudoeste 38 Sudoeste 0 -- -- 68
2019-04-07 15:00:00 8.9 20 Sudoeste 33 Sudoeste 0 -- -- 68
2019-04-07 14:00:00 8.8 20 Sudoeste 31 Sudoeste 0 -- -- 68
2019-04-07 13:00:00 7.2 16 Sudoeste 27 Sudoeste 0 -- -- 74
2019-04-07 12:00:00 7.2 14 Sudoeste 22 Sur 0 -- -- 74
2019-04-07 11:00:00 5.5 8 Sudoeste 21 Sudoeste 0 -- -- 80
2019-04-07 10:00:00 4.5 12 Sudoeste 19 Sudoeste 0 -- -- 85
2019-04-07 09:00:00 3.6 10 Sudoeste 23 Sudoeste 0 -- -- 88
2019-04-07 08:00:00 3.2 14 Sudoeste 21 Sudoeste 0 -- -- 90
2019-04-07 07:00:00 3 11 Sudoeste 20 Oeste 0 -- -- 91
2019-04-07 06:00:00 2.6 11 Sudoeste 19 Sudoeste 0 -- -- 91
2019-04-07 05:00:00 2.8 13 Oeste 28 Oeste 0 -- -- 89
2019-04-07 04:00:00 2 11 Sudoeste 23 Sudoeste 0 -- -- 92
2019-04-07 03:00:00 2.7 15 Sudoeste 33 Oeste 0.2 -- -- 90
2019-04-07 02:00:00 3.1 16 Sudoeste 31 Sudoeste 0 -- -- 92
2019-04-07 01:00:00 2.9 12 Sudoeste 26 Sudoeste 0 -- -- 93
2019-04-07 00:00:00 3.4 19 Sudoeste 35 Sudoeste 0.2 -- -- 88
2019-04-06 23:00:00 3.8 18 Sudoeste 37 Sudoeste 0 -- -- 80
2019-04-06 22:00:00 3.9 17 Sudoeste 51 Oeste 0.2 -- -- 84
2019-04-06 21:00:00 4.8 27 Oeste 41 Oeste 0 -- -- 77
2019-04-06 20:00:00 5.8 17 Sudoeste 45 Oeste 0 -- -- 79
2019-04-06 19:00:00 5.5 23 Oeste 36 Oeste 0 -- -- 77
2019-04-06 18:00:00 5.3 21 Sudoeste 51 Oeste 0.6 -- -- 89
2019-04-06 17:00:00 7 22 Oeste 50 Oeste 0 -- -- 71
2019-04-06 16:00:00 6.9 26 Oeste 53 Oeste 0.2 -- -- 73
2019-04-06 15:00:00 5.1 21 Sudoeste 62 Sudoeste 1.4 -- -- 94
2019-04-06 14:00:00 6.8 26 Sudoeste 51 Sudoeste 0 -- -- 75
2019-04-06 13:00:00 5.6 31 Sudoeste 51 Sudoeste 0 -- -- 85
2019-04-06 12:00:00 4.1 28 Sudoeste 45 Sudoeste 0 -- -- 90
2019-04-06 11:00:00 3 24 Sudoeste 39 Sudoeste 0.2 -- -- 92
2019-04-06 10:00:00 2.5 24 Sudoeste 41 Sudoeste 0 -- -- 93
2019-04-06 09:00:00 2.1 25 Sudoeste 40 Sudoeste 0.4 -- -- 96
2019-04-06 08:00:00 2.1 22 Sudoeste 35 Sudoeste 0 -- -- 95
2019-04-06 07:00:00 1.9 19 Sudoeste 31 Sudoeste 0 -- -- 95
2019-04-06 06:00:00 1.7 21 Sudoeste 34 Sudoeste 0 -- -- 93
2019-04-06 05:00:00 1.7 19 Sudoeste 31 Sudoeste 0 -- -- 95
2019-04-06 04:00:00 1.5 15 Sudoeste 28 Sudoeste 0 -- -- 95
2019-04-06 03:00:00 1.7 14 Sudoeste 23 Sudoeste 0 -- -- 95
2019-04-06 02:00:00 2.2 15 Sudoeste 23 Sudoeste 0 -- -- 93
2019-04-06 01:00:00 2.1 14 Sudoeste 27 Oeste 0 -- -- 94
2019-04-06 00:00:00 1.5 12 Sudoeste 20 Sudoeste 0 -- -- 96
2019-04-05 23:00:00 1.6 12 Sudoeste 19 Sudoeste 0.8 -- -- 96
2019-04-05 22:00:00 1.1 10 Sudoeste 18 Sudoeste 0.6 -- -- 97
2019-04-05 21:00:00 0.7 9 Sur 30 Sudoeste 1 -- -- 96
2019-04-05 20:00:00 1.8 19 Sudoeste 37 Sudoeste 2.6 -- -- 93
2019-04-05 19:00:00 5.2 21 Sudoeste 34 Sudoeste 0 -- -- 77
2019-04-05 18:00:00 6.6 21 Sur 33 Sur 0 -- -- 76
2019-04-05 17:00:00 5 18 Sur 31 Sur 0 -- -- 84
2019-04-05 16:00:00 2.5 9 Sur 19 Sur 2.2 -- -- 94
2019-04-05 15:00:00 0.4 7 Sudoeste 32 Oeste 1.6 -- -- 95
2019-04-05 14:00:00 4.6 11 Sur 26 Sur 0 -- -- 85
2019-04-05 13:00:00 3.4 14 Sur 21 Sur 0 -- -- 91
2019-04-05 12:00:00 2.2 13 Sur 21 Sudoeste 0.2 -- -- 95
2019-04-05 11:00:00 0.7 5 Sudoeste 13 Sur 1.8 -- -- 95
2019-04-05 10:00:00 1.5 6 Sur 15 Sur 0.2 -- -- 94
2019-04-05 09:00:00 1.5 7 Sur 15 Sudoeste 0 -- -- 95
2019-04-05 08:00:00 1 7 Sudoeste 31 Oeste 2.4 -- -- 95
2019-04-05 07:00:00 3.3 18 Oeste 45 Sudoeste 0.8 -- -- 91
2019-04-05 06:00:00 3.9 29 Sudoeste 48 Sudoeste 0 -- -- 91
2019-04-05 05:00:00 3.4 17 Sur 38 Sudoeste 0.2 -- -- 96
2019-04-05 04:00:00 3 24 Sudoeste 45 Sur 0.2 -- -- 92
2019-04-05 03:00:00 2.9 32 Sudoeste 47 Sudoeste 0 -- -- 91
2019-04-05 02:00:00 3.1 24 Sudoeste 43 Sudoeste 0.2 -- -- 92
2019-04-05 01:00:00 3.1 24 Sudoeste 46 Sudoeste 0 -- -- 92
2019-04-05 00:00:00 3.3 27 Sudoeste 42 Sudoeste 0 -- -- 90
2019-04-04 23:00:00 4 22 Sudoeste 41 Sudoeste 0.2 -- -- 88
2019-04-04 22:00:00 6.5 28 Sudoeste 44 Sudoeste 0 -- -- 56
2019-04-04 21:00:00 7.4 14 Oeste 40 Sudoeste 0 -- -- 49
2019-04-04 20:00:00 9 21 Sudoeste 40 Sudoeste 0 -- -- 38
2019-04-04 19:00:00 9.4 25 Sudoeste 37 Sudoeste 0 -- -- 36
2019-04-04 18:00:00 10.2 24 Sudoeste 41 Sudoeste 0 -- -- 34
2019-04-04 17:00:00 11.1 20 Sudoeste 46 Sudoeste 0 -- -- 27
2019-04-04 16:00:00 11.4 22 Sudoeste 39 Sudoeste 0 -- -- 29
2019-04-04 15:00:00 10.8 13 Sudoeste 28 Oeste 0 -- -- 32
2019-04-04 14:00:00 9.6 10 Oeste 22 Sudoeste 0 -- -- 35
2019-04-04 13:00:00 7.8 10 Sudoeste 21 Sudoeste 0 -- -- 42
2019-04-04 12:00:00 5.8 8 Oeste 17 Oeste 0 -- -- 46
2019-04-04 11:00:00 3.9 6 Oeste 10 Oeste 0 -- -- 60
2019-04-04 10:00:00 0.2 4 Sudoeste 10 Oeste 0 -- -- 81
2019-04-04 09:00:00 -5.1 8 Oeste 11 Oeste 0 -- -- 88
2019-04-04 08:00:00 -6.4 4 Oeste 12 Oeste 0 -- -- 90
2019-04-04 07:00:00 -6.2 7 Oeste 10 Oeste 0 -- -- 88
2019-04-04 06:00:00 -5.4 10 Oeste 12 Oeste 0 -- -- 87
2019-04-04 05:00:00 -3.7 4 Oeste 6 Oeste 0 -- -- 81
2019-04-04 04:00:00 -1 3 Norte 8 Oeste 0 -- -- 77
2019-04-04 03:00:00 0.2 6 Oeste 13 Noroeste 0 -- -- 69
2019-04-04 02:00:00 1.4 8 Norte 16 Noroeste 0 -- -- 65
2019-04-04 01:00:00 2.1 6 Norte 15 Norte 0 -- -- 60
2019-04-04 00:00:00 2.6 5 Norte 18 Noroeste 0 -- -- 56
2019-04-03 23:00:00 4 10 Noroeste 26 Noroeste 0 -- -- 51
2019-04-03 22:00:00 5.1 12 Noroeste 21 Noroeste 0 -- -- 52
2019-04-03 21:00:00 6.5 13 Noroeste 26 Noroeste 0 -- -- 48
2019-04-03 20:00:00 8.8 19 Noroeste 35 Noroeste 0 -- -- 39
2019-04-03 19:00:00 10.1 21 Noroeste 34 Norte 0 -- -- 35
2019-04-03 18:00:00 11 19 Noroeste 40 Oeste 0 -- -- 36
2019-04-03 17:00:00 10.9 16 Noroeste 35 Oeste 0 -- -- 38
2019-04-03 16:00:00 11.4 17 Noroeste 32 Noroeste 0 -- -- 38
2019-04-03 15:00:00 10.7 18 Noroeste 33 Norte 0 -- -- 46
2019-04-03 14:00:00 9.1 10 Noroeste 27 Norte 0 -- -- 54
2019-04-03 13:00:00 7.5 13 Noroeste 33 Noroeste 0 -- -- 58
2019-04-03 12:00:00 6.8 18 Noroeste 31 Noroeste 0 -- -- 60
2019-04-03 11:00:00 6.5 13 Oeste 24 Oeste 0 -- -- 66
2019-04-03 10:00:00 5.2 12 Oeste 21 Oeste 0 -- -- 79
2019-04-03 09:00:00 3.9 8 Noroeste 14 Noroeste 0 -- -- 91
2019-04-03 08:00:00 2.1 9 Noroeste 13 Sudoeste 0 -- -- 95
2019-04-03 07:00:00 1.6 5 Sudoeste 9 Sudoeste 0 -- -- 93
2019-04-03 06:00:00 2.6 6 Oeste 10 Oeste 0 -- -- 91
2019-04-03 05:00:00 2.9 5 Sudoeste 7 Oeste 0 -- -- 86
2019-04-03 04:00:00 4 4 Oeste 13 Oeste 0 -- -- 80
2019-04-03 03:00:00 4.7 9 Sudoeste 12 Sudoeste -- -- -- 81
2019-04-03 02:00:00 5.7 7 Sudoeste 11 Sudoeste 0 -- -- 74
2019-04-03 01:00:00 6.3 3 Sudoeste 8 Oeste 0 -- -- 68
2019-04-03 00:00:00 5.4 6 Sudoeste 12 Sudoeste 0 -- -- 64
2019-04-02 23:00:00 6.1 10 Sudoeste 13 Sudoeste 0 -- -- 60
2019-04-02 22:00:00 9.8 3 Sudoeste 13 Noroeste 0 -- -- 49
2019-04-02 21:00:00 12.2 8 Oeste 30 Noroeste 0 -- -- 43
2019-04-02 20:00:00 15.1 19 Noroeste 33 Oeste 0 -- -- 35
2019-04-02 19:00:00 16.4 21 Oeste 37 Oeste 0 -- -- 34
2019-04-02 18:00:00 17.1 20 Oeste 35 Oeste 0 -- -- 35
2019-04-02 17:00:00 16.7 20 Oeste 39 Oeste 0 -- -- 40
2019-04-02 16:00:00 16.7 17 Oeste 33 Oeste 0 -- -- 40
2019-04-02 15:00:00 16.8 19 Oeste 30 Sudoeste 0 -- -- 41
2019-04-02 14:00:00 15.6 13 Oeste 27 Oeste 0 -- -- 45
2019-04-02 13:00:00 15.1 10 Oeste 22 Oeste 0 -- -- 45
2019-04-02 12:00:00 13.2 10 Sudoeste 17 Sudoeste 0 -- -- 56
2019-04-02 11:00:00 11.3 5 Oeste 15 Sudoeste 0 -- -- 65
2019-04-02 10:00:00 8.8 4 Sur 8 Sudoeste 0 -- -- 83
2019-04-02 09:00:00 6.6 6 Oeste 10 Oeste 0 -- -- 89
2019-04-02 08:00:00 6.9 5 Oeste 10 Sur 0 -- -- 88
2019-04-02 07:00:00 7.4 6 Sur 9 Sur 0 -- -- 88
2019-04-02 06:00:00 7.5 5 Sudoeste 9 Sudoeste 0 -- -- 87
2019-04-02 05:00:00 7.6 6 Sudoeste 14 Sudoeste 0.2 -- -- 86
2019-04-02 04:00:00 7.5 8 Oeste 13 Sudoeste 0 -- -- 83
2019-04-02 03:00:00 7.7 5 Sudoeste 13 Sudoeste 0 -- -- 80
2019-04-02 02:00:00 8.4 6 Sur 9 Sur 0 -- -- 78
2019-04-02 01:00:00 8.9 4 Sur 10 Oeste 0 -- -- 75
2019-04-02 00:00:00 9.5 5 Oeste 13 Noroeste 0 -- -- 71
2019-04-01 23:00:00 10.2 5 Oeste 25 Noroeste 0 -- -- 69
2019-04-01 22:00:00 11 11 Oeste 18 Oeste 0 -- -- 61
2019-04-01 21:00:00 11.5 12 Sudoeste 24 Sudoeste 0 -- -- 63
2019-04-01 20:00:00 12.1 15 Sudoeste 28 Sudoeste 0 -- -- 57
2019-04-01 19:00:00 12.7 19 Sudoeste 32 Sudoeste 0 -- -- 56
2019-04-01 18:00:00 16.1 15 Sudoeste 33 Sur 0 -- -- 52
2019-04-01 17:00:00 16.7 9 Nordeste 23 Nordeste 0 -- -- 35
2019-04-01 16:00:00 16.3 10 Nordeste 25 Norte 0 -- -- 37
2019-04-01 15:00:00 16.7 9 Este 21 Nordeste 0 -- -- 43
2019-04-01 14:00:00 15.3 10 Nordeste 19 Nordeste 0 -- -- 47
2019-04-01 13:00:00 13.1 7 Norte 18 Nordeste 0 -- -- 58
2019-04-01 12:00:00 11.8 8 Nordeste 16 Nordeste 0 -- -- 65
2019-04-01 11:00:00 9.2 7 Nordeste 13 Nordeste 0 -- -- 73
2019-04-01 10:00:00 5.5 3 Oeste 5 Norte 0 -- -- 86
2019-04-01 09:00:00 1.4 3 Oeste 8 Sudoeste 0 -- -- 94
2019-04-01 08:00:00 0.7 6 Oeste 10 Oeste 0 -- -- 94
2019-04-01 07:00:00 1.1 6 Oeste 9 Oeste 0 -- -- 93
2019-04-01 06:00:00 2.6 5 Oeste 9 Oeste 0 -- -- 91
2019-04-01 05:00:00 3.8 5 Oeste 7 Sudoeste 0 -- -- 87
2019-04-01 04:00:00 5.1 5 Oeste 9 Sur 0 -- -- 79
2019-04-01 03:00:00 5.4 8 Sudoeste 11 Sudoeste 0 -- -- 82
2019-04-01 02:00:00 5.8 4 Noroeste 6 Oeste 0 -- -- 79
2019-04-01 01:00:00 5.2 4 Oeste 9 Oeste 0 -- -- 80
2019-04-01 00:00:00 5.7 3 Sur 7 Oeste 0 -- -- 78
2019-03-31 23:00:00 6.2 9 Oeste 13 Oeste 0 -- -- 77
2019-03-31 22:00:00 9.3 3 Sur 7 Norte 0 -- -- 66
2019-03-31 21:00:00 11.6 4 Sudoeste 17 Sur 0 -- -- 58
2019-03-31 20:00:00 13.5 8 Sur 17 Sudeste 0 -- -- 50
2019-03-31 19:00:00 13.9 10 Sudeste 28 Sudeste 0 -- -- 48
2019-03-31 18:00:00 15.3 15 Sudeste 31 Sudeste 0 -- -- 43
2019-03-31 17:00:00 16.3 13 Sur 30 Sur 0 -- -- 42
2019-03-31 16:00:00 15.8 9 Sudoeste 28 Nordeste 0 -- -- 39
2019-03-31 15:00:00 18.7 15 Este 28 Nordeste 0 -- -- 30
2019-03-31 14:00:00 15.9 9 Sudeste 20 Sudeste 0 -- -- 42
2019-03-31 13:00:00 16.3 10 Nordeste 23 Nordeste 0 -- -- 41
2019-03-31 12:00:00 14.5 6 Nordeste 12 Nordeste 0 -- -- 43
2019-03-31 11:00:00 10.1 3 Norte 9 Oeste 0 -- -- 62
2019-03-31 10:00:00 4.3 4 Oeste 8 Oeste 0 -- -- 78
2019-03-31 09:00:00 -0.9 5 Noroeste 8 Noroeste 0 -- -- 92
2019-03-31 08:00:00 -1.2 5 Noroeste 7 Sudoeste 0 -- -- 90
2019-03-31 07:00:00 -0.2 3 Oeste 8 Noroeste 0 -- -- 87
2019-03-31 06:00:00 0.2 6 Sudoeste 10 Noroeste 0 -- -- 87
2019-03-31 05:00:00 0.9 7 Norte 10 Norte 0 -- -- 81
2019-03-31 03:00:00 1.6 6 Oeste 10 Oeste 0 -- -- 83
2019-03-31 01:00:00 2.6 5 Noroeste 9 Noroeste 0 -- -- 75
2019-03-31 00:00:00 4.9 3 Oeste 7 Sudoeste 0 -- -- 67
2019-03-30 23:00:00 8.5 4 Sudoeste 13 Sudoeste 0 -- -- 56
2019-03-30 22:00:00 10.4 10 Sudoeste 24 Sudeste 0 -- -- 51
2019-03-30 21:00:00 13.5 11 Sudeste 19 Sudeste 0 -- -- 40
2019-03-30 20:00:00 14.6 4 Oeste 19 Norte 0 -- -- 31
2019-03-30 19:00:00 16 4 Norte 12 Nordeste 0 -- -- 29
2019-03-30 18:00:00 16.4 5 Norte 19 Nordeste 0 -- -- 28
2019-03-30 17:00:00 16.9 11 Nordeste 18 Nordeste 0 -- -- 27
2019-03-30 16:00:00 17.2 8 Norte 24 Nordeste 0 -- -- 27
2019-03-30 15:00:00 16.4 12 Este 22 Este 0 -- -- 28
2019-03-30 14:00:00 17.1 8 Norte 18 Norte 0 -- -- 29
2019-03-30 13:00:00 16.7 10 Norte 29 Norte 0 -- -- 29
2019-03-30 12:00:00 16 6 Norte 15 Oeste 0 -- -- 33
2019-03-30 11:00:00 15.4 6 Sur 13 Este 0 -- -- 34
2019-03-30 10:00:00 10.9 4 Oeste 9 Sudoeste 0 -- -- 52
2019-03-30 09:00:00 5 3 Noroeste 7 Noroeste 0 -- -- 70
2019-03-30 08:00:00 -0.3 4 Noroeste 7 Noroeste 0 -- -- 82
2019-03-30 07:00:00 -1.1 6 Noroeste 8 Oeste 0 -- -- 81
2019-03-30 06:00:00 -1.5 3 Noroeste 10 Noroeste 0 -- -- 82
2019-03-30 05:00:00 -1.5 5 Noroeste 10 Oeste 0 -- -- 82
2019-03-30 04:00:00 -0.8 4 Noroeste 9 Oeste 0 -- -- 80
2019-03-30 03:00:00 0.8 3 Sudoeste 6 Oeste 0 -- -- 74
2019-03-30 02:00:00 1.6 5 Oeste 9 Sudoeste 0 -- -- 73
2019-03-30 01:00:00 4 6 Oeste 10 Oeste 0 -- -- 61
2019-03-30 00:00:00 6.8 4 Sur 11 Sudoeste 0 -- -- 51
2019-03-29 23:00:00 8.3 10 Sudoeste 21 Sur 0 -- -- 48
2019-03-29 22:00:00 9.8 15 Sur 26 Sudoeste 0 -- -- 45
2019-03-29 21:00:00 10.9 10 Oeste 22 Sudoeste 0 -- -- 42
2019-03-29 20:00:00 13.5 15 Sudoeste 24 Sudoeste 0 -- -- 37
2019-03-29 19:00:00 15.5 10 Noroeste 16 Noroeste 0 -- -- 31
2019-03-29 18:00:00 16 9 Norte 23 Norte 0 -- -- 29
2019-03-29 17:00:00 18.3 5 Nordeste 17 Noroeste 0 -- -- 26
2019-03-29 16:00:00 17.3 12 Nordeste 19 Norte 0 -- -- 26
2019-03-29 15:00:00 18.3 6 Noroeste 21 Sudoeste 0 -- -- 26
2019-03-29 14:00:00 17.7 9 Noroeste 18 Oeste 0 -- -- 24
2019-03-29 13:00:00 17.3 6 Sudeste 14 Noroeste 0 -- -- 26
2019-03-29 12:00:00 16 9 Oeste 24 Sudoeste 0 -- -- 28
2019-03-29 11:00:00 15.3 10 Sur 19 Sudoeste 0 -- -- 30
2019-03-29 10:00:00 9.7 4 Oeste 8 Sudoeste 0 -- -- 47
2019-03-29 09:00:00 2.8 0 Calma 7 Oeste 0 -- -- 76
2019-03-29 08:00:00 -2.6 3 Oeste 8 Oeste 0 -- -- 84
2019-03-29 07:00:00 -3.2 2 Noroeste 10 Oeste 0 -- -- 85
2019-03-29 06:00:00 -2.5 4 Oeste 9 Sudoeste 0 -- -- 82
2019-03-29 05:00:00 -2.6 6 Oeste 11 Oeste 0 -- -- 85
2019-03-29 04:00:00 -2.3 8 Oeste 8 Oeste 0 -- -- 82
2019-03-29 03:00:00 -0.8 3 Oeste 13 Oeste 0 -- -- 78
2019-03-29 02:00:00 0.4 3 Noroeste 9 Oeste 0 -- -- 71
2019-03-29 01:00:00 1.2 6 Noroeste 9 Oeste 0 -- -- 69
2019-03-29 00:00:00 2.7 6 Oeste 12 Oeste 0 -- -- 63
2019-03-28 23:00:00 3.9 3 Sudoeste 8 Sudeste 0 -- -- 60
2019-03-28 22:00:00 7.1 4 Este 14 Nordeste 0 -- -- 49
2019-03-28 21:00:00 10.1 8 Nordeste 14 Norte 0 -- -- 39
2019-03-28 20:00:00 12.5 7 Norte 12 Norte 0 -- -- 35
2019-03-28 19:00:00 16.5 7 Norte 13 Norte 0 -- -- 27
2019-03-28 18:00:00 18 4 Norte 16 Norte 0 -- -- 24
2019-03-28 17:00:00 17.7 8 Este 19 Este 0 -- -- 25
2019-03-28 16:00:00 17.2 11 Nordeste 24 Nordeste 0 -- -- 25
2019-03-28 15:00:00 17 8 Nordeste 22 Norte 0 -- -- 28
2019-03-28 14:00:00 15.6 13 Norte 27 Nordeste 0 -- -- 32
2019-03-28 13:00:00 14.2 15 Nordeste 22 Nordeste 0 -- -- 32
2019-03-28 12:00:00 11.7 12 Norte 21 Este 0 -- -- 39
2019-03-28 11:00:00 8.9 11 Nordeste 22 Nordeste 0 -- -- 43
2019-03-28 10:00:00 6 13 Nordeste 18 Nordeste 0 -- -- 47
2019-03-28 09:00:00 1.9 3 Sur 6 Sudeste 0 -- -- 60
2019-03-28 08:00:00 -2.7 0 Calma 9 Sudoeste 0 -- -- 78
2019-03-28 07:00:00 -3.1 3 Oeste 8 Noroeste 0 -- -- 75
2019-03-28 06:00:00 -2.4 2 Norte 11 Oeste 0 -- -- 74
2019-03-28 05:00:00 -2.1 6 Oeste 9 Oeste 0 -- -- 73
2019-03-28 04:00:00 0.5 3 Noroeste 10 Noroeste 0 -- -- 61
2019-03-28 03:00:00 1.5 5 Norte 8 Norte 0 -- -- 58
2019-03-28 02:00:00 2.5 5 Norte 13 Oeste 0 -- -- 56
2019-03-28 01:00:00 3.3 4 Noroeste 11 Norte 0 -- -- 54
2019-03-28 00:00:00 4.9 3 Noroeste 12 Este 0 -- -- 47
2019-03-27 23:00:00 6.6 8 Nordeste 21 Nordeste 0 -- -- 42
2019-03-27 22:00:00 8.3 10 Este 13 Nordeste 0 -- -- 37
2019-03-27 21:00:00 9.1 6 Norte 9 Norte 0 -- -- 37
2019-03-27 20:00:00 13.1 5 Norte 20 Nordeste 0 -- -- 27
2019-03-27 19:00:00 16.1 13 Nordeste 28 Nordeste 0 -- -- 22
2019-03-27 18:00:00 16.8 17 Nordeste 30 Nordeste 0 -- -- 19
2019-03-27 17:00:00 17 19 Nordeste 32 Nordeste 0 -- -- 19
2019-03-27 16:00:00 17.2 19 Nordeste 31 Norte 0 -- -- 22
2019-03-27 15:00:00 17.1 19 Nordeste 32 Nordeste 0 -- -- 23
2019-03-27 14:00:00 16 14 Nordeste 27 Norte 0 -- -- 23
2019-03-27 13:00:00 14.8 16 Nordeste 26 Nordeste 0 -- -- 29
2019-03-27 12:00:00 11.5 9 Nordeste 19 Nordeste 0 -- -- 41
2019-03-27 11:00:00 8.3 12 Nordeste 20 Nordeste 0 -- -- 46
2019-03-27 10:00:00 5.5 9 Nordeste 13 Este 0 -- -- 50
2019-03-27 09:00:00 2.5 4 Nordeste 8 Nordeste 0 -- -- 61
2019-03-27 08:00:00 -0.9 0 Calma 5 Nordeste 0 -- -- 68
2019-03-27 07:00:00 -1.6 0 Calma 10 Nordeste 0 -- -- 67
2019-03-27 06:00:00 -1 4 Norte 7 Norte 0 -- -- 62
2019-03-27 05:00:00 -0.3 4 Norte 12 Norte 0 -- -- 56
2019-03-27 04:00:00 1.1 6 Norte 17 Nordeste 0 -- -- 50
2019-03-27 03:00:00 2.5 13 Nordeste 26 Nordeste 0 -- -- 46
2019-03-27 02:00:00 3.2 14 Nordeste 22 Nordeste 0 -- -- 45
2019-03-27 01:00:00 4.7 4 Norte 27 Nordeste 0 -- -- 42
2019-03-27 00:00:00 5.7 21 Nordeste 44 Nordeste 0 -- -- 40
2019-03-26 23:00:00 7.7 26 Nordeste 35 Nordeste 0 -- -- 36
2019-03-26 22:00:00 9.3 18 Nordeste 30 Nordeste 0 -- -- 34
2019-03-26 21:00:00 11.7 24 Nordeste 37 Nordeste 0 -- -- 31
2019-03-26 20:00:00 14.4 26 Nordeste 44 Nordeste 0 -- -- 26
2019-03-26 19:00:00 17.5 26 Nordeste 46 Nordeste 0 -- -- 22
2019-03-26 18:00:00 18.4 30 Nordeste 39 Nordeste 0 -- -- 24
2019-03-26 17:00:00 18.8 28 Nordeste 50 Nordeste 0 -- -- 24
2019-03-26 16:00:00 18.1 31 Nordeste 47 Nordeste 0 -- -- 29
2019-03-26 15:00:00 16.7 31 Nordeste 44 Nordeste 0 -- -- 31
2019-03-26 14:00:00 15.3 27 Nordeste 41 Nordeste 0 -- -- 34
2019-03-26 13:00:00 12.8 25 Nordeste 45 Nordeste 0 -- -- 44
2019-03-26 12:00:00 9.8 23 Nordeste 40 Nordeste 0 -- -- 52
2019-03-26 11:00:00 7.5 28 Nordeste 48 Nordeste 0 -- -- 59
2019-03-26 10:00:00 5.3 36 Nordeste 48 Nordeste 0 -- -- 66
2019-03-26 09:00:00 2.4 23 Nordeste 34 Nordeste 0 -- -- 76
2019-03-26 08:00:00 -0.4 16 Nordeste 22 Nordeste 0 -- -- 85
2019-03-26 07:00:00 -1.7 3 Nordeste 12 Nordeste 0 -- -- 86
2019-03-26 06:00:00 -1 10 Nordeste 16 Nordeste 0 -- -- 84
2019-03-26 05:00:00 0 12 Nordeste 21 Nordeste 0 -- -- 81
2019-03-26 04:00:00 0.8 8 Nordeste 35 Nordeste 0 -- -- 76
2019-03-26 03:00:00 1.9 21 Nordeste 29 Nordeste 0 -- -- 73
2019-03-26 02:00:00 2.6 10 Nordeste 27 Nordeste 0 -- -- 72
2019-03-26 01:00:00 4 21 Nordeste 31 Nordeste 0 -- -- 69
2019-03-26 00:00:00 4.8 14 Nordeste 23 Nordeste 0 -- -- 69
2019-03-25 23:00:00 6.1 17 Nordeste 31 Nordeste 0 -- -- 64
2019-03-25 22:00:00 7.7 24 Nordeste 38 Nordeste 0 -- -- 59
2019-03-25 21:00:00 9.5 24 Nordeste 34 Nordeste 0 -- -- 52
2019-03-25 20:00:00 11.3 20 Nordeste 47 Nordeste 0 -- -- 41
2019-03-25 19:00:00 14 27 Nordeste 47 Nordeste 0 -- -- 35
2019-03-25 18:00:00 15.7 30 Nordeste 44 Nordeste 0 -- -- 29
2019-03-25 17:00:00 16.8 27 Nordeste 47 Nordeste 0 -- -- 28
2019-03-25 16:00:00 17.1 27 Nordeste 39 Nordeste 0 -- -- 32
2019-03-25 15:00:00 16.9 27 Nordeste 39 Nordeste 0 -- -- 37
2019-03-25 14:00:00 16.9 23 Nordeste 34 Nordeste 0 -- -- 37
2019-03-25 13:00:00 15.2 22 Nordeste 30 Nordeste 0 -- -- 44
2019-03-25 12:00:00 13.2 18 Nordeste 28 Nordeste 0 -- -- 50
2019-03-25 11:00:00 10.7 11 Nordeste 19 Nordeste 0 -- -- 55
2019-03-25 10:00:00 7.5 9 Nordeste 15 Nordeste 0 -- -- 66
2019-03-25 09:00:00 3.9 0 Calma 3 Sur 0 -- -- 82
2019-03-25 08:00:00 -0.5 2 Oeste 8 Norte 0 -- -- 91
2019-03-25 07:00:00 -0.6 3 Noroeste 10 Norte 0 -- -- 91
2019-03-25 06:00:00 -0.8 6 Oeste 10 Oeste 0 -- -- 90
2019-03-25 05:00:00 -0.4 5 Noroeste 8 Norte 0 -- -- 87
2019-03-25 04:00:00 0.9 2 Oeste 8 Oeste 0 -- -- 81
2019-03-25 03:00:00 1 5 Sudoeste 10 Norte 0 -- -- 80
2019-03-25 02:00:00 1.3 8 Oeste 9 Oeste 0 -- -- 81
2019-03-25 01:00:00 2.7 4 Noroeste 14 Nordeste 0 -- -- 72
2019-03-25 00:00:00 2.9 4 Oeste 14 Norte 0 -- -- 73
2019-03-24 23:00:00 4.8 6 Oeste 10 Oeste 0 -- -- 66
2019-03-24 22:00:00 7.6 7 Noroeste 13 Noroeste 0 -- -- 56
2019-03-24 21:00:00 10.5 7 Noroeste 14 Sudeste 0 -- -- 47
2019-03-24 20:00:00 13.9 9 Sudeste 20 Este 0 -- -- 38
2019-03-24 19:00:00 17.3 14 Este 29 Este 0 -- -- 30
2019-03-24 18:00:00 18.3 18 Este 40 Nordeste 0 -- -- 27
2019-03-24 17:00:00 18.5 23 Nordeste 40 Norte 0 -- -- 31
2019-03-24 16:00:00 18.3 25 Nordeste 39 Nordeste 0 -- -- 32
2019-03-24 15:00:00 18.1 26 Nordeste 64 Nordeste 0 -- -- 33
2019-03-24 14:00:00 17.5 26 Nordeste 44 Nordeste 0 -- -- 34
2019-03-24 13:00:00 17.4 26 Nordeste 45 Nordeste 0 -- -- 36
2019-03-24 12:00:00 16.2 27 Nordeste 46 Nordeste 0 -- -- 39
2019-03-24 11:00:00 13.3 18 Nordeste 25 Nordeste 0 -- -- 50
2019-03-24 10:00:00 10.4 17 Nordeste 24 Nordeste 0 -- -- 57
2019-03-24 09:00:00 5.8 14 Nordeste 18 Nordeste 0 -- -- 75
2019-03-24 08:00:00 1.1 7 Nordeste 12 Nordeste 0 -- -- 86
2019-03-24 07:00:00 2.1 5 Este 11 Este 0 -- -- 88
2019-03-24 06:00:00 2.4 6 Norte 10 Norte 0 -- -- 79
2019-03-24 05:00:00 3.7 5 Nordeste 9 Sudeste 0 -- -- 77
2019-03-24 04:00:00 4.3 6 Este 12 Este 0 -- -- 76
2019-03-24 03:00:00 4.1 3 Norte 7 Este 0 -- -- 78
2019-03-24 02:00:00 3.4 6 Norte 8 Norte 0 -- -- 80
2019-03-24 01:00:00 5.4 2 Noroeste 5 Oeste 0 -- -- 71
2019-03-24 00:00:00 6.5 4 Oeste 12 Noroeste 0 -- -- 67
2019-03-23 23:00:00 8.6 6 Noroeste 10 Oeste 0 -- -- 60
2019-03-23 22:00:00 11.1 4 Oeste 11 Noroeste 0 -- -- 51
2019-03-23 21:00:00 12.9 8 Sudeste 13 Sudeste 0 -- -- 45
2019-03-23 20:00:00 14.2 8 Sudeste 27 Sudeste 0 -- -- 42
2019-03-23 19:00:00 16.4 14 Sudeste 32 Este 0 -- -- 34
2019-03-23 18:00:00 18 21 Este 33 Este 0 -- -- 31
2019-03-23 17:00:00 18.2 17 Este 35 Este 0 -- -- 31
2019-03-23 16:00:00 19.1 17 Este 35 Este 0 -- -- 32
2019-03-23 15:00:00 18.6 18 Este 35 Este 0 -- -- 29
2019-03-23 14:00:00 18.3 14 Este 31 Este 0 -- -- 31
2019-03-23 13:00:00 17.6 13 Este 28 Este 0 -- -- 34
2019-03-23 12:00:00 16 9 Nordeste 18 Nordeste 0 -- -- 38
2019-03-23 11:00:00 14.3 4 Este 9 Nordeste 0 -- -- 44
2019-03-23 10:00:00 8 0 Calma 5 Oeste 0 -- -- 66
2019-03-23 09:00:00 1.6 3 Oeste 8 Noroeste 0 -- -- 82
2019-03-23 08:00:00 -2.2 4 Oeste 10 Oeste 0 -- -- 88
2019-03-23 07:00:00 -2.4 5 Oeste 8 Oeste 0 -- -- 84
2019-03-23 06:00:00 -2.3 5 Noroeste 8 Oeste 0 -- -- 86
2019-03-23 05:00:00 -1.8 4 Oeste 8 Oeste 0 -- -- 85
2019-03-23 04:00:00 -1.5 4 Oeste 8 Sudoeste 0 -- -- 83
2019-03-23 03:00:00 -0.7 4 Oeste 9 Sudoeste 0 -- -- 81
2019-03-23 02:00:00 -0.5 5 Oeste 7 Oeste 0 -- -- 80
2019-03-23 01:00:00 0.4 3 Oeste 10 Sudoeste 0 -- -- 76
2019-03-23 00:00:00 1.3 8 Oeste 9 Oeste 0 -- -- 72
2019-03-22 23:00:00 3.5 6 Noroeste 10 Oeste 0 -- -- 64
2019-03-22 22:00:00 5.4 5 Noroeste 12 Sur 0 -- -- 58
2019-03-22 21:00:00 8.5 3 Sur 8 Norte 0 -- -- 46
2019-03-22 20:00:00 10.4 8 Norte 22 Norte 0 -- -- 41
2019-03-22 19:00:00 14.3 15 Nordeste 28 Nordeste 0 -- -- 32
2019-03-22 18:00:00 15.6 19 Norte 31 Nordeste 0 -- -- 31
2019-03-22 17:00:00 16.1 19 Nordeste 31 Nordeste 0 -- -- 31
2019-03-22 16:00:00 16.3 18 Nordeste 31 Norte 0 -- -- 30
2019-03-22 15:00:00 16 14 Nordeste 25 Nordeste 0 -- -- 30
2019-03-22 14:00:00 15.2 11 Norte 22 Norte 0 -- -- 30
2019-03-22 13:00:00 14.8 10 Nordeste 23 Norte 0 -- -- 32
2019-03-22 12:00:00 13.2 8 Nordeste 16 Este 0 -- -- 32
2019-03-22 11:00:00 10.5 4 Norte 7 Norte 0 -- -- 54
2019-03-22 10:00:00 5.9 2 Noroeste 4 Noroeste 0 -- -- 67
2019-03-22 09:00:00 -0.5 2 Oeste 5 Noroeste 0 -- -- 87
2019-03-22 08:00:00 -4.3 4 Oeste 5 Oeste 0 -- -- 90
2019-03-22 07:00:00 -4.6 3 Oeste 7 Noroeste 0 -- -- 90
2019-03-22 06:00:00 -4.4 4 Noroeste 10 Oeste 0 -- -- 90
2019-03-22 05:00:00 -3.5 4 Oeste 9 Norte 0 -- -- 88
2019-03-22 04:00:00 -2.8 5 Oeste 9 Oeste 0 -- -- 87
2019-03-22 03:00:00 -2.3 6 Oeste 9 Oeste 0 -- -- 84
2019-03-22 02:00:00 -2 8 Oeste 10 Oeste 0 -- -- 83
2019-03-22 01:00:00 -1.1 3 Sur 8 Oeste 0 -- -- 83
2019-03-22 00:00:00 0 7 Oeste 9 Oeste 0 -- -- 76
2019-03-21 23:00:00 1.8 5 Oeste 9 Noroeste 0 -- -- 71
2019-03-21 22:00:00 3.9 5 Oeste 10 Oeste 0 -- -- 62
2019-03-21 21:00:00 6.9 5 Oeste 10 Nordeste 0 -- -- 51
2019-03-21 20:00:00 8.5 9 Norte 15 Nordeste 0 -- -- 46
2019-03-21 19:00:00 12.3 10 Norte 18 Norte 0 -- -- 34
2019-03-21 18:00:00 13.6 13 Nordeste 23 Nordeste 0 -- -- 31
2019-03-21 17:00:00 14.5 8 Norte 20 Nordeste 0 -- -- 30
2019-03-21 16:00:00 14.3 8 Nordeste 20 Nordeste 0 -- -- 31
2019-03-21 15:00:00 13.9 5 Nordeste 21 Norte 0 -- -- 32
2019-03-21 14:00:00 12.9 9 Norte 22 Nordeste 0 -- -- 34
2019-03-21 13:00:00 12.4 9 Nordeste 18 Nordeste 0 -- -- 36
2019-03-21 12:00:00 9.8 9 Nordeste 18 Nordeste 0 -- -- 50
2019-03-21 11:00:00 6.3 9 Nordeste 13 Nordeste 0 -- -- 57
2019-03-21 10:00:00 2.9 8 Nordeste 12 Este 0 -- -- 71
2019-03-21 09:00:00 -0.2 2 Este 5 Nordeste 0 -- -- 82
2019-03-21 08:00:00 -4.4 0 Calma 8 Noroeste 0 -- -- 89
2019-03-21 07:00:00 -4.8 6 Norte 9 Noroeste 0 -- -- 89
2019-03-21 06:00:00 -3.8 3 Noroeste 6 Noroeste 0 -- -- 84
2019-03-21 05:00:00 -2.8 4 Norte 7 Oeste 0 -- -- 81
2019-03-21 04:00:00 -0.7 0 Calma 6 Nordeste 0 -- -- 76
2019-03-21 03:00:00 -0.7 3 Nordeste 9 Nordeste 0 -- -- 77
2019-03-21 02:00:00 0.7 4 Norte 10 Noroeste 0 -- -- 70
2019-03-21 01:00:00 1.7 5 Sudeste 10 Nordeste 0 -- -- 67
2019-03-21 00:00:00 2.7 7 Norte 18 Nordeste 0 -- -- 65